Time;durP1;ratioP1;P1;durP2;ratioP2;P2;SDS_P1;SDS_P2;PMS_P1;PMS_P2;Temp;Humidity;BMP_temperature;BMP_pressure;BME280_temperature;BME280_humidity;BME280_pressure;Samples;Min_cycle;Max_cycle;Signal;HPM_P1;HPM_P2
2022/04/19 00:00:12;;;;;;;;;;;20.40;99.90;;;;;;5054515;28;20401;-65
2022/04/19 00:02:39;;;;;;;;;;;20.40;99.90;;;;;;5057789;28;19924;-62
2022/04/19 00:05:06;;;;;;;;;;;20.40;99.90;;;;;;5056201;28;19920;-65
2022/04/19 00:07:33;;;;;;;;;;;20.40;99.90;;;;;;5050297;28;19929;-64
2022/04/19 00:10:00;;;;;;;;;;;20.40;99.90;;;;;;5055816;28;19924;-64
2022/04/19 00:12:28;;;;;;;;;;;20.40;99.90;;;;;;5060708;28;19920;-63
2022/04/19 00:14:55;;;;;;;;;;;20.40;99.90;;;;;;5054951;28;19925;-65
2022/04/19 00:17:22;;;;;;;;;;;20.40;99.90;;;;;;5049403;28;19924;-63
2022/04/19 00:19:49;;;;;;;;;;;20.40;99.90;;;;;;5048737;28;20389;-63
2022/04/19 00:22:17;;;;;;;;;;;20.40;99.90;;;;;;5055282;28;19921;-63
2022/04/19 00:24:44;;;;;;;;;;;20.40;99.90;;;;;;5052064;28;19928;-64
2022/04/19 00:27:12;;;;;;;;;;;20.40;99.90;;;;;;5054396;28;19931;-64
2022/04/19 00:29:41;;;;;;;;;;;20.40;99.90;;;;;;5040543;28;19927;-63
2022/04/19 00:32:08;;;;;;;;;;;20.40;99.90;;;;;;5053781;28;20238;-64
2022/04/19 00:34:35;;;;;;;;;;;20.40;99.90;;;;;;5032274;28;19924;-63
2022/04/19 00:37:03;;;;;;;;;;;20.30;99.90;;;;;;5037304;28;19927;-64
2022/04/19 00:39:30;;;;;;;;;;;20.30;99.90;;;;;;5050571;28;19931;-63
2022/04/19 00:41:57;;;;;;;;;;;20.30;99.90;;;;;;5052555;28;19936;-61
2022/04/19 00:44:24;;;;;;;;;;;20.30;99.90;;;;;;5052320;28;20358;-63
2022/04/19 00:46:51;;;;;;;;;;;20.30;99.90;;;;;;5057221;28;19920;-64
2022/04/19 00:49:19;;;;;;;;;;;20.30;99.90;;;;;;5056129;28;19920;-64
2022/04/19 00:51:46;;;;;;;;;;;20.30;99.90;;;;;;5041302;28;19921;-62
2022/04/19 00:54:17;;;;;;;;;;;20.30;99.90;;;;;;5040940;28;19947;-62
2022/04/19 00:56:46;;;;;;;;;;;20.30;99.90;;;;;;5054991;28;20053;-61
2022/04/19 00:59:15;;;;;;;;;;;20.30;99.90;;;;;;5051268;28;19928;-61
2022/04/19 01:01:44;;;;;;;;;;;20.30;99.90;;;;;;5059594;28;19928;-64
2022/04/19 01:04:11;;;;;;;;;;;20.30;99.90;;;;;;5060182;28;19924;-63
2022/04/19 01:06:39;;;;;;;;;;;20.30;99.90;;;;;;5048913;28;19921;-63
2022/04/19 01:09:06;;;;;;;;;;;20.20;99.90;;;;;;5064289;28;19948;-63
2022/04/19 01:14:19;;;;;;;;;;;20.20;99.90;;;;;;5052117;28;19921;-63
2022/04/19 01:16:48;;;;;;;;;;;20.20;99.90;;;;;;5039915;28;19924;-63
2022/04/19 01:19:15;;;;;;;;;;;20.20;99.90;;;;;;5041631;28;19935;-62
2022/04/19 01:21:50;;;;;;;;;;;20.20;99.90;;;;;;5054693;28;19954;-64
2022/04/19 01:24:23;;;;;;;;;;;20.20;99.90;;;;;;5038894;28;19924;-63
2022/04/19 01:26:55;;;;;;;;;;;20.20;99.90;;;;;;5043007;28;19921;-64
2022/04/19 01:29:24;;;;;;;;;;;20.20;99.90;;;;;;5038299;28;19921;-64
2022/04/19 01:31:52;;;;;;;;;;;20.20;99.90;;;;;;5056055;28;19995;-64
2022/04/19 01:34:22;;;;;;;;;;;20.20;99.90;;;;;;5031031;28;20416;-62
2022/04/19 01:36:53;;;;;;;;;;;20.20;99.90;;;;;;5034917;28;19924;-63
2022/04/19 01:40:16;;;;;;;;;;;20.20;99.90;;;;;;5051424;28;20313;-63
2022/04/19 01:42:09;;;;;;;;;;;20.20;99.90;;;;;;5044157;28;19920;-64
2022/04/19 01:44:39;;;;;;;;;;;20.20;99.90;;;;;;5040417;28;19920;-63
2022/04/19 01:47:08;;;;;;;;;;;20.20;99.90;;;;;;5014888;28;19935;-63
2022/04/19 01:49:43;;;;;;;;;;;20.10;99.90;;;;;;5034257;28;19929;-63
2022/04/19 01:52:11;;;;;;;;;;;20.10;99.90;;;;;;5064566;28;19932;-62
2022/04/19 01:54:40;;;;;;;;;;;20.20;99.90;;;;;;5040339;28;19931;-62
2022/04/19 01:57:08;;;;;;;;;;;20.20;99.90;;;;;;5035683;28;20323;-63
2022/04/19 01:59:50;;;;;;;;;;;20.20;99.90;;;;;;5043588;28;20010;-63
2022/04/19 02:02:43;;;;;;;;;;;20.10;99.90;;;;;;5045949;28;20300;-62
2022/04/19 02:05:12;;;;;;;;;;;20.10;99.90;;;;;;5033716;28;19984;-63
2022/04/19 02:07:41;;;;;;;;;;;20.10;99.90;;;;;;5060489;28;19925;-61
2022/04/19 02:10:09;;;;;;;;;;;20.10;99.90;;;;;;5041818;28;19924;-63
2022/04/19 02:12:38;;;;;;;;;;;20.10;99.90;;;;;;5061725;28;20433;-64
2022/04/19 02:15:28;;;;;;;;;;;20.10;99.90;;;;;;5045000;28;19920;-62
2022/04/19 02:17:58;;;;;;;;;;;20.10;99.90;;;;;;5048886;28;19924;-63
2022/04/19 02:20:26;;;;;;;;;;;20.10;99.90;;;;;;5037155;28;19925;-64
2022/04/19 02:22:53;;;;;;;;;;;20.10;99.90;;;;;;5057756;28;20024;-64
2022/04/19 02:25:24;;;;;;;;;;;20.10;99.90;;;;;;5040946;28;19931;-70
2022/04/19 02:27:53;;;;;;;;;;;20.10;99.90;;;;;;5044068;28;20397;-67
2022/04/19 02:30:24;;;;;;;;;;;20.10;99.90;;;;;;5043054;28;19943;-63
2022/04/19 02:33:02;;;;;;;;;;;20.10;99.90;;;;;;5041351;28;19943;-64
2022/04/19 02:35:33;;;;;;;;;;;20.10;99.90;;;;;;5048618;28;19927;-63
2022/04/19 02:38:02;;;;;;;;;;;20.10;99.90;;;;;;5040323;28;20155;-61
2022/04/19 02:40:35;;;;;;;;;;;20.10;99.90;;;;;;5047870;28;19928;-63
2022/04/19 02:43:05;;;;;;;;;;;20.10;99.90;;;;;;5047209;28;19935;-62
2022/04/19 02:45:32;;;;;;;;;;;20.10;99.90;;;;;;5044432;28;19931;-63
2022/04/19 02:48:03;;;;;;;;;;;20.10;99.90;;;;;;5046019;28;20638;-64
2022/04/19 02:50:33;;;;;;;;;;;20.10;99.90;;;;;;5065365;28;19921;-63
2022/04/19 02:53:01;;;;;;;;;;;20.10;99.90;;;;;;5049482;28;19931;-62
2022/04/19 02:55:28;;;;;;;;;;;20.00;99.90;;;;;;5045994;28;19928;-62
2022/04/19 02:57:56;;;;;;;;;;;20.10;99.90;;;;;;5060610;28;19928;-62
2022/04/19 03:00:23;;;;;;;;;;;20.00;99.90;;;;;;5038984;28;20386;-63
2022/04/19 03:02:51;;;;;;;;;;;20.00;99.90;;;;;;5046899;28;19922;-63
2022/04/19 03:05:18;;;;;;;;;;;20.00;99.90;;;;;;5040453;28;19948;-61
2022/04/19 03:07:46;;;;;;;;;;;20.00;99.90;;;;;;5063544;28;19943;-63
2022/04/19 03:10:15;;;;;;;;;;;20.00;99.90;;;;;;5043499;28;19924;-62
2022/04/19 03:12:43;;;;;;;;;;;20.00;99.90;;;;;;5041187;28;19920;-62
2022/04/19 03:15:17;;;;;;;;;;;20.00;99.90;;;;;;5042187;28;19932;-62
2022/04/19 03:17:45;;;;;;;;;;;20.00;99.90;;;;;;5045455;28;19929;-62
2022/04/19 03:20:14;;;;;;;;;;;20.00;99.90;;;;;;5037555;28;19929;-62
2022/04/19 03:28:21;;;;;;;;;;;20.00;99.90;;;;;;5044201;28;19920;-63
2022/04/19 03:30:48;;;;;;;;;;;19.90;99.90;;;;;;5052686;28;19944;-63
2022/04/19 03:33:18;;;;;;;;;;;20.00;99.90;;;;;;5036397;28;20382;-62
2022/04/19 03:35:45;;;;;;;;;;;20.00;99.90;;;;;;5042566;28;19931;-63
2022/04/19 03:38:13;;;;;;;;;;;20.00;99.90;;;;;;5043290;28;19920;-62
2022/04/19 03:40:40;;;;;;;;;;;19.90;99.90;;;;;;5053145;28;19925;-63
2022/04/19 03:43:08;;;;;;;;;;;19.90;99.90;;;;;;5042669;28;19936;-61
2022/04/19 03:45:35;;;;;;;;;;;19.90;99.90;;;;;;5044761;28;19936;-62
2022/04/19 03:48:05;;;;;;;;;;;19.90;99.90;;;;;;5045919;28;19920;-63
2022/04/19 03:50:33;;;;;;;;;;;19.90;99.90;;;;;;5046967;28;19921;-62
2022/04/19 03:53:00;;;;;;;;;;;19.90;99.90;;;;;;5046636;28;19952;-62
2022/04/19 03:55:28;;;;;;;;;;;19.90;99.90;;;;;;5043109;28;19928;-62
2022/04/19 03:57:55;;;;;;;;;;;19.90;99.90;;;;;;5045082;28;20100;-61
2022/04/19 04:00:22;;;;;;;;;;;19.90;99.90;;;;;;5062280;28;20000;-64
2022/04/19 04:02:51;;;;;;;;;;;19.90;99.90;;;;;;5053758;28;19928;-66
2022/04/19 04:05:25;;;;;;;;;;;19.90;99.90;;;;;;5054227;28;19931;-66
2022/04/19 04:07:58;;;;;;;;;;;19.90;99.90;;;;;;5045595;28;19924;-65
2022/04/19 04:10:30;;;;;;;;;;;20.00;99.90;;;;;;5042536;28;19924;-66
2022/04/19 04:12:59;;;;;;;;;;;20.00;99.90;;;;;;5057335;28;19940;-62
2022/04/19 04:15:28;;;;;;;;;;;19.80;93.90;;;;;;5044399;28;19936;-62
2022/04/19 04:17:55;;;;;;;;;;;18.70;86.60;;;;;;5059055;28;19931;-61
2022/04/19 04:20:22;;;;;;;;;;;17.90;89.10;;;;;;5057360;28;19920;-64
2022/04/19 04:22:49;;;;;;;;;;;18.00;94.90;;;;;;5055891;28;19920;-64
2022/04/19 04:25:19;;;;;;;;;;;18.50;96.00;;;;;;5049166;28;20373;-65
2022/04/19 04:27:46;;;;;;;;;;;19.00;93.70;;;;;;5049645;28;19924;-65
2022/04/19 04:30:14;;;;;;;;;;;19.50;93.30;;;;;;5049368;28;19930;-60
2022/04/19 04:32:50;;;;;;;;;;;20.00;93.30;;;;;;5054249;28;19951;-68
2022/04/19 04:35:18;;;;;;;;;;;20.40;93.40;;;;;;5068595;28;19924;-68
2022/04/19 04:37:45;;;;;;;;;;;20.70;93.50;;;;;;5054522;28;19924;-67
2022/04/19 04:40:13;;;;;;;;;;;20.90;93.50;;;;;;5048053;28;19920;-66
2022/04/19 04:42:48;;;;;;;;;;;21.20;93.50;;;;;;5058477;28;19928;-67
2022/04/19 04:45:15;;;;;;;;;;;21.40;93.40;;;;;;5048653;28;19932;-66
2022/04/19 04:50:31;;;;;;;;;;;21.60;93.40;;;;;;5032765;28;19947;-66
2022/04/19 04:53:02;;;;;;;;;;;21.60;93.40;;;;;;5025769;28;19932;-68
2022/04/19 04:55:31;;;;;;;;;;;21.70;93.50;;;;;;5010125;28;19944;-66
2022/04/19 04:58:01;;;;;;;;;;;21.60;93.70;;;;;;5010664;28;19925;-67
2022/04/19 05:00:29;;;;;;;;;;;21.60;93.80;;;;;;5008567;28;19936;-67
2022/04/19 05:03:00;;;;;;;;;;;21.60;93.90;;;;;;5010719;28;19941;-69
2022/04/19 05:05:28;;;;;;;;;;;21.60;94.00;;;;;;5016506;28;19921;-66
2022/04/19 05:07:58;;;;;;;;;;;21.50;94.20;;;;;;5012138;28;19921;-66
2022/04/19 05:10:27;;;;;;;;;;;21.40;94.30;;;;;;5010845;28;19921;-67
2022/04/19 05:12:55;;;;;;;;;;;21.40;94.50;;;;;;5013980;28;19930;-67
2022/04/19 05:15:25;;;;;;;;;;;21.40;94.60;;;;;;5022908;28;20310;-66
2022/04/19 05:17:53;;;;;;;;;;;21.30;94.70;;;;;;5022750;28;20303;-68
2022/04/19 05:20:21;;;;;;;;;;;21.40;94.80;;;;;;5009255;28;19930;-67
2022/04/19 05:22:48;;;;;;;;;;;21.40;94.90;;;;;;5008013;28;19949;-65
2022/04/19 05:25:16;;;;;;;;;;;21.30;95.00;;;;;;5025747;28;19921;-66
2022/04/19 05:27:43;;;;;;;;;;;21.40;95.10;;;;;;5027082;28;20309;-65
2022/04/19 05:30:11;;;;;;;;;;;21.40;95.20;;;;;;5013477;28;19926;-65
2022/04/19 05:32:38;;;;;;;;;;;21.40;95.20;;;;;;5023513;28;19925;-64
2022/04/19 05:35:07;;;;;;;;;;;21.30;95.20;;;;;;5015665;28;19924;-65
2022/04/19 05:37:36;;;;;;;;;;;21.30;95.30;;;;;;5018777;28;19936;-65
2022/04/19 05:40:03;;;;;;;;;;;21.30;95.40;;;;;;5024864;28;19928;-68
2022/04/19 05:42:32;;;;;;;;;;;21.30;95.50;;;;;;5025270;28;19932;-64
2022/04/19 05:45:00;;;;;;;;;;;21.30;95.50;;;;;;5023333;28;19925;-66
2022/04/19 05:47:29;;;;;;;;;;;21.30;95.60;;;;;;5023527;28;20259;-66
2022/04/19 05:49:56;;;;;;;;;;;21.30;95.80;;;;;;5015067;28;19925;-63
2022/04/19 05:52:25;;;;;;;;;;;21.30;96.00;;;;;;5016979;28;19925;-60
2022/04/19 05:54:53;;;;;;;;;;;21.30;95.90;;;;;;5021571;28;19925;-63
2022/04/19 05:57:20;;;;;;;;;;;21.30;95.90;;;;;;5016336;28;20409;-63
2022/04/19 05:59:47;;;;;;;;;;;21.30;96.00;;;;;;5008215;28;19936;-61
2022/04/19 06:05:00;;;;;;;;;;;21.20;96.30;;;;;;5024410;28;20781;-63
2022/04/19 06:07:30;;;;;;;;;;;21.20;96.30;;;;;;5021816;28;19955;-63
2022/04/19 06:10:08;;;;;;;;;;;21.20;96.40;;;;;;5021195;28;19938;-64
2022/04/19 06:12:35;;;;;;;;;;;21.20;96.50;;;;;;5014542;28;19925;-65
2022/04/19 06:15:03;;;;;;;;;;;21.10;96.50;;;;;;5030189;28;19936;-63
2022/04/19 06:17:32;;;;;;;;;;;21.10;96.50;;;;;;5020780;28;19922;-62
2022/04/19 06:20:07;;;;;;;;;;;21.10;96.80;;;;;;5022058;28;19925;-62
2022/04/19 06:22:35;;;;;;;;;;;21.10;97.00;;;;;;5009771;28;19980;-63
2022/04/19 06:25:08;;;;;;;;;;;21.10;97.10;;;;;;5009345;28;20385;-60
2022/04/19 06:27:36;;;;;;;;;;;21.10;97.50;;;;;;5011414;28;19932;-64
2022/04/19 06:30:05;;;;;;;;;;;21.10;97.60;;;;;;5021337;28;20373;-60
2022/04/19 06:32:32;;;;;;;;;;;21.00;97.70;;;;;;5040020;28;19940;-61
2022/04/19 06:35:02;;;;;;;;;;;21.00;97.90;;;;;;5014196;28;19925;-63
2022/04/19 06:37:31;;;;;;;;;;;21.00;98.10;;;;;;5015559;28;20402;-57
2022/04/19 06:40:09;;;;;;;;;;;21.00;98.30;;;;;;5017654;28;19929;-65
2022/04/19 06:42:37;;;;;;;;;;;21.00;98.50;;;;;;5019874;28;19926;-62
2022/04/19 06:45:17;;;;;;;;;;;21.00;98.40;;;;;;5019895;28;19925;-64
2022/04/19 06:47:56;;;;;;;;;;;21.00;98.50;;;;;;5017888;28;19925;-63
2022/04/19 06:50:24;;;;;;;;;;;21.00;98.60;;;;;;5016649;28;20317;-60
2022/04/19 06:53:00;;;;;;;;;;;21.10;98.70;;;;;;5082689;27;20383;-62
2022/04/19 06:55:45;;;;;;;;;;;21.00;99.00;;;;;;5036716;28;19929;-61
2022/04/19 06:58:13;;;;;;;;;;;20.90;99.40;;;;;;5026113;28;19929;-58
2022/04/19 07:00:40;;;;;;;;;;;20.90;99.40;;;;;;5023020;28;19933;-61
2022/04/19 07:03:08;;;;;;;;;;;20.90;99.60;;;;;;5025159;28;21536;-61
2022/04/19 07:05:54;;;;;;;;;;;20.90;99.70;;;;;;5035217;28;19944;-62
2022/04/19 07:08:21;;;;;;;;;;;20.90;99.60;;;;;;5030677;28;19932;-63
2022/04/19 07:10:48;;;;;;;;;;;20.90;99.70;;;;;;5023853;28;20373;-59
2022/04/19 07:13:43;;;;;;;;;;;20.90;99.80;;;;;;5026110;28;19929;-62
2022/04/19 07:16:15;;;;;;;;;;;20.90;99.90;;;;;;5020618;28;19940;-60
2022/04/19 07:18:43;;;;;;;;;;;20.90;99.90;;;;;;5021000;28;19933;-61
2022/04/19 07:26:44;;;;;;;;;;;20.90;99.90;;;;;;5026104;28;20388;-61
2022/04/19 07:29:17;;;;;;;;;;;20.90;99.90;;;;;;5026342;28;19937;-61
2022/04/19 07:31:46;;;;;;;;;;;20.90;99.90;;;;;;5054745;28;19929;-63
2022/04/19 07:34:36;;;;;;;;;;;20.90;99.90;;;;;;5021032;28;19926;-62
2022/04/19 07:37:04;;;;;;;;;;;20.90;99.90;;;;;;5022033;28;19929;-63
2022/04/19 07:39:33;;;;;;;;;;;20.90;99.90;;;;;;5031622;28;20178;-63
2022/04/19 07:42:02;;;;;;;;;;;20.90;99.90;;;;;;5021538;28;19929;-64
2022/04/19 07:44:31;;;;;;;;;;;20.90;99.90;;;;;;5031128;28;19929;-62
2022/04/19 07:46:58;;;;;;;;;;;20.90;99.90;;;;;;5027979;28;20352;-63
2022/04/19 07:49:25;;;;;;;;;;;20.90;99.90;;;;;;5031876;28;19952;-63
2022/04/19 07:51:54;;;;;;;;;;;20.90;99.90;;;;;;5033865;28;19929;-62
2022/04/19 07:54:22;;;;;;;;;;;20.90;99.90;;;;;;5022076;28;19925;-60
2022/04/19 07:56:50;;;;;;;;;;;20.90;99.90;;;;;;5025960;28;19941;-61
2022/04/19 07:59:17;;;;;;;;;;;20.90;99.90;;;;;;5019309;28;19937;-66
2022/04/19 08:01:44;;;;;;;;;;;20.90;99.90;;;;;;5026528;28;19940;-66
2022/04/19 08:04:12;;;;;;;;;;;20.90;99.90;;;;;;5012876;28;19933;-66
2022/04/19 08:06:40;;;;;;;;;;;20.90;99.90;;;;;;5005782;28;19949;-65
2022/04/19 08:09:08;;;;;;;;;;;20.90;99.90;;;;;;5006769;28;20256;-60
2022/04/19 08:11:38;;;;;;;;;;;21.00;99.90;;;;;;5013610;28;19930;-63
2022/04/19 08:14:05;;;;;;;;;;;21.00;99.90;;;;;;5010734;28;20315;-62
2022/04/19 08:16:33;;;;;;;;;;;21.00;99.90;;;;;;5012426;28;19945;-62
2022/04/19 08:19:01;;;;;;;;;;;21.00;99.90;;;;;;5029383;28;19929;-66
2022/04/19 08:21:28;;;;;;;;;;;21.10;99.90;;;;;;5013402;28;20383;-66
2022/04/19 08:23:56;;;;;;;;;;;21.10;99.90;;;;;;5013220;28;19934;-65
2022/04/19 08:26:23;;;;;;;;;;;21.10;99.90;;;;;;5017318;28;20280;-61
2022/04/19 08:28:50;;;;;;;;;;;21.10;99.90;;;;;;5011668;28;19940;-64
2022/04/19 08:31:17;;;;;;;;;;;21.10;99.90;;;;;;5017066;28;19933;-64
2022/04/19 08:33:45;;;;;;;;;;;21.10;99.90;;;;;;5018229;28;19933;-63
2022/04/19 08:36:16;;;;;;;;;;;21.10;99.90;;;;;;5012306;28;19941;-63
2022/04/19 08:38:46;;;;;;;;;;;21.10;99.90;;;;;;5013082;28;19929;-66
2022/04/19 08:41:17;;;;;;;;;;;21.10;99.90;;;;;;5008608;28;20369;-66
2022/04/19 08:43:45;;;;;;;;;;;21.10;99.90;;;;;;5022267;28;20420;-64
2022/04/19 08:46:14;;;;;;;;;;;21.10;99.90;;;;;;5016169;28;19926;-59
2022/04/19 08:48:42;;;;;;;;;;;21.10;99.90;;;;;;5017348;28;20320;-64
2022/04/19 08:51:10;;;;;;;;;;;21.10;99.90;;;;;;5019513;28;19940;-60
2022/04/19 08:59:09;;;;;;;;;;;21.10;99.90;;;;;;5006759;28;20396;-63
2022/04/19 09:01:36;;;;;;;;;;;21.10;99.90;;;;;;5012460;28;19948;-67
2022/04/19 09:04:04;;;;;;;;;;;21.00;99.90;;;;;;5015521;28;19924;-62
2022/04/19 09:06:48;;;;;;;;;;;21.00;99.90;;;;;;5010041;28;19929;-65
2022/04/19 09:09:15;;;;;;;;;;;21.10;99.90;;;;;;5009816;28;19943;-61
2022/04/19 09:11:42;;;;;;;;;;;21.10;99.90;;;;;;5013861;28;20408;-59
2022/04/19 09:14:10;;;;;;;;;;;21.10;99.90;;;;;;5013071;28;19941;-62
2022/04/19 09:16:37;;;;;;;;;;;21.10;99.90;;;;;;5019905;28;19932;-65
2022/04/19 09:19:07;;;;;;;;;;;21.10;99.90;;;;;;5020031;28;19963;-64
2022/04/19 09:21:36;;;;;;;;;;;21.10;99.90;;;;;;5019321;28;19929;-65
2022/04/19 09:24:18;;;;;;;;;;;21.10;99.90;;;;;;5013132;28;19925;-62
2022/04/19 09:26:46;;;;;;;;;;;21.10;99.90;;;;;;5013834;28;20328;-63
2022/04/19 09:29:26;;;;;;;;;;;21.10;99.90;;;;;;5014930;28;20301;-61
2022/04/19 09:31:57;;;;;;;;;;;21.10;99.90;;;;;;5008974;28;20418;-58
2022/04/19 09:34:28;;;;;;;;;;;21.10;99.90;;;;;;5011618;28;19934;-58
2022/04/19 09:37:11;;;;;;;;;;;21.10;99.90;;;;;;5011278;28;20483;-60
2022/04/19 09:39:38;;;;;;;;;;;21.00;99.90;;;;;;5019933;28;19936;-60
2022/04/19 09:42:07;;;;;;;;;;;21.00;99.90;;;;;;5010719;28;19944;-60
2022/04/19 09:44:38;;;;;;;;;;;20.90;99.90;;;;;;5009687;28;20407;-61
2022/04/19 09:47:12;;;;;;;;;;;20.90;99.90;;;;;;5006162;28;20397;-64
2022/04/19 09:49:52;;;;;;;;;;;21.00;99.90;;;;;;5004055;28;19948;-66
2022/04/19 09:52:22;;;;;;;;;;;21.00;99.90;;;;;;5005856;28;19926;-66
2022/04/19 09:55:03;;;;;;;;;;;21.00;99.90;;;;;;5004060;28;20423;-61
2022/04/19 09:57:37;;;;;;;;;;;21.00;99.90;;;;;;5011293;28;20340;-63
2022/04/19 10:00:05;;;;;;;;;;;21.00;99.90;;;;;;5009697;28;19949;-66
2022/04/19 10:08:18;;;;;;;;;;;21.00;99.90;;;;;;5009105;28;20392;-66
2022/04/19 10:10:47;;;;;;;;;;;21.10;99.90;;;;;;5014860;28;19937;-66
2022/04/19 10:13:19;;;;;;;;;;;21.10;99.90;;;;;;5011746;28;19940;-59
2022/04/19 10:15:46;;;;;;;;;;;21.10;99.90;;;;;;5007918;28;19929;-61
2022/04/19 10:18:13;;;;;;;;;;;21.10;99.90;;;;;;5013966;28;20295;-62
2022/04/19 10:20:44;;;;;;;;;;;21.00;99.90;;;;;;5008106;28;19936;-59
2022/04/19 10:23:12;;;;;;;;;;;21.00;99.90;;;;;;5010721;28;19945;-61
2022/04/19 10:25:43;;;;;;;;;;;21.00;99.90;;;;;;5004793;28;19933;-62
2022/04/19 10:28:15;;;;;;;;;;;21.00;99.90;;;;;;5006757;28;19928;-60
2022/04/19 10:30:52;;;;;;;;;;;21.00;99.90;;;;;;5009830;28;19925;-60
2022/04/19 10:33:39;;;;;;;;;;;21.00;99.90;;;;;;5011326;28;19940;-64
2022/04/19 10:36:10;;;;;;;;;;;21.10;99.90;;;;;;5013240;28;19948;-59
2022/04/19 10:38:37;;;;;;;;;;;21.10;99.90;;;;;;4999438;28;19926;-60
2022/04/19 10:41:04;;;;;;;;;;;21.10;99.90;;;;;;5001232;28;20373;-65
2022/04/19 10:43:32;;;;;;;;;;;21.10;99.90;;;;;;5002132;28;19945;-63
2022/04/19 10:46:17;;;;;;;;;;;21.20;99.90;;;;;;5004113;28;19933;-61
2022/04/19 10:49:03;;;;;;;;;;;21.20;99.90;;;;;;5002986;28;20294;-63
2022/04/19 10:51:30;;;;;;;;;;;21.10;99.90;;;;;;4994994;28;20457;-63
2022/04/19 10:53:58;;;;;;;;;;;21.10;99.90;;;;;;4998506;28;19948;-62
2022/04/19 10:56:25;;;;;;;;;;;21.10;99.90;;;;;;4990845;28;19989;-62
2022/04/19 10:58:52;;;;;;;;;;;21.10;99.90;;;;;;4991865;28;19925;-62
2022/04/19 11:01:27;;;;;;;;;;;21.10;99.90;;;;;;4997145;28;19929;-60
2022/04/19 11:03:55;;;;;;;;;;;21.10;99.90;;;;;;4995160;28;20297;-61
2022/04/19 11:06:40;;;;;;;;;;;21.10;99.90;;;;;;5005111;28;20365;-61
2022/04/19 11:09:20;;;;;;;;;;;21.10;99.90;;;;;;5037692;28;20561;-60
2022/04/19 11:11:48;;;;;;;;;;;21.20;99.90;;;;;;4998097;28;19953;-61
2022/04/19 11:14:18;;;;;;;;;;;21.20;99.90;;;;;;5003137;28;19926;-63
2022/04/19 11:16:50;;;;;;;;;;;21.30;99.90;;;;;;5011962;28;20314;-64
2022/04/19 11:19:22;;;;;;;;;;;21.30;99.90;;;;;;5008953;28;19932;-61
2022/04/19 11:21:54;;;;;;;;;;;21.20;99.90;;;;;;5012661;28;20415;-62
2022/04/19 11:24:39;;;;;;;;;;;21.20;99.90;;;;;;5004703;28;20419;-64
2022/04/19 11:27:07;;;;;;;;;;;21.20;99.90;;;;;;5004155;28;19933;-61
2022/04/19 11:29:50;;;;;;;;;;;21.20;99.90;;;;;;4998204;28;19929;-64
2022/04/19 11:32:21;;;;;;;;;;;21.20;99.90;;;;;;4992250;28;19937;-63
2022/04/19 11:35:04;;;;;;;;;;;21.20;99.90;;;;;;4991188;28;20012;-61
2022/04/19 11:37:32;;;;;;;;;;;21.20;99.90;;;;;;5003173;28;21874;-60
2022/04/19 11:48:29;;;;;;;;;;;21.10;99.90;;;;;;5007827;28;19925;-62
2022/04/19 11:51:07;;;;;;;;;;;21.10;99.90;;;;;;5005307;28;19937;-60
2022/04/19 11:53:34;;;;;;;;;;;21.00;99.90;;;;;;4996610;28;19925;-60
2022/04/19 11:56:02;;;;;;;;;;;21.10;99.90;;;;;;5002552;28;19926;-63
2022/04/19 11:58:30;;;;;;;;;;;21.10;99.90;;;;;;5000665;28;20490;-56
2022/04/19 12:00:58;;;;;;;;;;;21.10;99.90;;;;;;5003591;28;19925;-61
2022/04/19 12:03:27;;;;;;;;;;;21.10;99.90;;;;;;4995366;28;19930;-59
2022/04/19 12:06:07;;;;;;;;;;;21.10;99.90;;;;;;5000701;28;20317;-59
2022/04/19 12:08:37;;;;;;;;;;;21.00;99.90;;;;;;5006467;28;19937;-60
2022/04/19 12:11:05;;;;;;;;;;;21.00;99.90;;;;;;5006490;28;19944;-61
2022/04/19 12:13:32;;;;;;;;;;;20.90;99.90;;;;;;4993678;28;19937;-59
2022/04/19 12:16:09;;;;;;;;;;;20.90;99.90;;;;;;5006353;28;19933;-60
2022/04/19 12:18:38;;;;;;;;;;;20.90;99.90;;;;;;5001495;28;20029;-55
2022/04/19 12:21:06;;;;;;;;;;;20.80;99.90;;;;;;5006307;28;19929;-61
2022/04/19 12:23:34;;;;;;;;;;;20.80;99.90;;;;;;5004104;28;19933;-60
2022/04/19 12:26:10;;;;;;;;;;;20.80;99.90;;;;;;4999419;28;19929;-60
2022/04/19 12:28:38;;;;;;;;;;;20.70;99.90;;;;;;5003809;28;19926;-54
2022/04/19 12:31:05;;;;;;;;;;;20.70;99.90;;;;;;5006014;28;19936;-60
2022/04/19 12:33:34;;;;;;;;;;;20.70;99.90;;;;;;5000228;28;20316;-61
2022/04/19 12:36:02;;;;;;;;;;;20.70;99.90;;;;;;5005880;28;20332;-59
2022/04/19 12:38:31;;;;;;;;;;;20.80;99.90;;;;;;4992788;28;19929;-55
2022/04/19 12:40:59;;;;;;;;;;;20.80;99.50;;;;;;5000104;28;19925;-59
2022/04/19 12:43:41;;;;;;;;;;;20.90;99.10;;;;;;4998146;28;20181;-58
2022/04/19 12:46:08;;;;;;;;;;;20.90;98.90;;;;;;5005186;28;20312;-59
2022/04/19 12:48:36;;;;;;;;;;;20.90;98.80;;;;;;5001638;28;20452;-61
2022/04/19 12:51:03;;;;;;;;;;;21.00;98.70;;;;;;4999624;28;19933;-60
2022/04/19 12:53:33;;;;;;;;;;;21.00;98.70;;;;;;5007840;28;19937;-61
2022/04/19 12:56:37;;;;;;;;;;;21.00;98.60;;;;;;5005422;28;19934;-61
2022/04/19 12:59:05;;;;;;;;;;;21.10;98.60;;;;;;5015675;28;20039;-60
2022/04/19 13:01:32;;;;;;;;;;;21.10;98.60;;;;;;5005472;28;19929;-60
2022/04/19 13:04:04;;;;;;;;;;;21.20;98.60;;;;;;4999405;28;19959;-61
2022/04/19 13:12:17;;;;;;;;;;;21.30;98.50;;;;;;5004642;28;19930;-60
2022/04/19 13:14:45;;;;;;;;;;;21.30;98.40;;;;;;5007813;28;19936;-61
2022/04/19 13:17:20;;;;;;;;;;;21.40;98.10;;;;;;4989837;28;19929;-59
2022/04/19 13:19:47;;;;;;;;;;;21.40;97.80;;;;;;4997642;28;19934;-61
2022/04/19 13:22:15;;;;;;;;;;;21.40;97.80;;;;;;5001470;28;20385;-59
2022/04/19 13:24:42;;;;;;;;;;;21.50;97.80;;;;;;5001331;28;19932;-60
2022/04/19 13:27:10;;;;;;;;;;;21.50;97.70;;;;;;5002732;28;19925;-61
2022/04/19 13:29:38;;;;;;;;;;;21.50;97.70;;;;;;5037987;28;19932;-62
2022/04/19 13:32:06;;;;;;;;;;;21.60;97.80;;;;;;5001560;28;19929;-64
2022/04/19 13:34:33;;;;;;;;;;;21.60;95.20;;;;;;5006606;28;19929;-65
2022/04/19 13:37:01;;;;;;;;;;;21.40;94.90;;;;;;5011772;28;19937;-62
2022/04/19 13:39:28;;;;;;;;;;;21.30;90.70;;;;;;5004615;28;19926;-63
2022/04/19 13:41:55;;;;;;;;;;;21.10;88.60;;;;;;5005775;28;19948;-63
2022/04/19 13:44:23;;;;;;;;;;;21.10;90.20;;;;;;5018239;28;20263;-63
2022/04/19 13:46:52;;;;;;;;;;;21.10;87.50;;;;;;5005669;28;19934;-62
2022/04/19 13:49:19;;;;;;;;;;;21.00;86.20;;;;;;5005503;28;19925;-63
2022/04/19 13:51:47;;;;;;;;;;;21.00;86.40;;;;;;5002370;28;19934;-61
2022/04/19 13:54:15;;;;;;;;;;;21.00;82.40;;;;;;5006297;28;19929;-62
2022/04/19 13:56:46;;;;;;;;;;;21.00;82.20;;;;;;4995386;28;19940;-63
2022/04/19 13:59:14;;;;;;;;;;;21.00;80.50;;;;;;4991462;28;20305;-60
2022/04/19 14:01:43;;;;;;;;;;;21.00;77.70;;;;;;4998450;28;19930;-61
2022/04/19 14:04:10;;;;;;;;;;;20.90;78.30;;;;;;5003049;28;20306;-64
2022/04/19 14:06:38;;;;;;;;;;;21.00;78.50;;;;;;5005712;28;19929;-63
2022/04/19 14:09:07;;;;;;;;;;;20.90;76.90;;;;;;4995362;28;19936;-64
2022/04/19 14:11:35;;;;;;;;;;;20.90;76.90;;;;;;4999517;28;19933;-62
2022/04/19 14:14:03;;;;;;;;;;;21.00;77.00;;;;;;5008427;28;19930;-62
2022/04/19 14:16:30;;;;;;;;;;;21.00;77.80;;;;;;5010207;28;19929;-66
2022/04/19 14:18:58;;;;;;;;;;;21.10;77.60;;;;;;5005760;28;19934;-68
2022/04/19 14:21:25;;;;;;;;;;;21.10;75.40;;;;;;5010948;28;19929;-66
2022/04/19 14:23:52;;;;;;;;;;;21.00;74.40;;;;;;4997935;28;19926;-67
2022/04/19 14:26:20;;;;;;;;;;;21.10;74.10;;;;;;5000007;28;19930;-68
2022/04/19 14:34:19;;;;;;;;;;;21.10;71.90;;;;;;4993199;28;19925;-68
2022/04/19 14:36:46;;;;;;;;;;;21.00;72.40;;;;;;4997605;28;20282;-67
2022/04/19 14:39:13;;;;;;;;;;;21.20;74.30;;;;;;5001285;28;19936;-69
2022/04/19 14:41:40;;;;;;;;;;;21.20;72.70;;;;;;5008900;28;20432;-65
2022/04/19 14:44:07;;;;;;;;;;;21.20;73.30;;;;;;4989191;28;19934;-65
2022/04/19 14:46:34;;;;;;;;;;;21.30;74.70;;;;;;4996160;28;20274;-67
2022/04/19 14:49:02;;;;;;;;;;;21.30;74.10;;;;;;4990504;28;19930;-69
2022/04/19 14:54:15;;;;;;;;;;;21.60;77.60;;;;;;4990243;28;19926;-67
2022/04/19 14:56:42;;;;;;;;;;;21.80;78.60;;;;;;5001810;28;19926;-68
2022/04/19 14:59:10;;;;;;;;;;;21.90;79.80;;;;;;4999688;28;19925;-67
2022/04/19 15:01:37;;;;;;;;;;;22.00;81.20;;;;;;4999797;28;20005;-66
2022/04/19 15:04:04;;;;;;;;;;;22.10;82.60;;;;;;5004593;28;19926;-64
2022/04/19 15:06:31;;;;;;;;;;;22.20;84.40;;;;;;5004653;28;20013;-66
2022/04/19 15:08:59;;;;;;;;;;;22.20;84.60;;;;;;5002518;28;19933;-64
2022/04/19 15:11:26;;;;;;;;;;;22.20;84.80;;;;;;4990792;28;19930;-64
2022/04/19 15:13:53;;;;;;;;;;;22.20;84.90;;;;;;4989445;28;19936;-65
2022/04/19 15:16:20;;;;;;;;;;;22.20;85.50;;;;;;5023408;28;19936;-66
2022/04/19 15:18:48;;;;;;;;;;;22.20;86.30;;;;;;4994359;28;20312;-65
2022/04/19 15:21:15;;;;;;;;;;;22.10;86.90;;;;;;5008470;28;19929;-66
2022/04/19 15:23:42;;;;;;;;;;;22.10;87.80;;;;;;4991847;28;19930;-65